sensor_id;sensor_type;location;lat;lon;timestamp;P1;durP1;ratioP1;P2;durP2;ratioP2
22754;SDS011;11544;42.020;23.094;2023-04-01T00:00:00;3.40;;;1.50;;
22754;SDS011;11544;42.020;23.094;2023-04-01T00:02:27;3.35;;;1.88;;
22754;SDS011;11544;42.020;23.094;2023-04-01T00:04:54;2.60;;;1.42;;
22754;SDS011;11544;42.020;23.094;2023-04-01T00:07:22;3.53;;;1.55;;
22754;SDS011;11544;42.020;23.094;2023-04-01T00:09:49;1.77;;;1.05;;
22754;SDS011;11544;42.020;23.094;2023-04-01T00:12:16;5.72;;;1.40;;
22754;SDS011;11544;42.020;23.094;2023-04-01T00:14:43;3.67;;;1.42;;
22754;SDS011;11544;42.020;23.094;2023-04-01T00:17:11;4.43;;;1.60;;
22754;SDS011;11544;42.020;23.094;2023-04-01T00:19:38;2.50;;;1.38;;
22754;SDS011;11544;42.020;23.094;2023-04-01T00:22:05;3.78;;;1.40;;
22754;SDS011;11544;42.020;23.094;2023-04-01T00:24:32;5.85;;;1.48;;
22754;SDS011;11544;42.020;23.094;2023-04-01T00:26:59;3.17;;;1.38;;
22754;SDS011;11544;42.020;23.094;2023-04-01T00:29:27;5.32;;;1.13;;
22754;SDS011;11544;42.020;23.094;2023-04-01T00:31:56;3.70;;;1.35;;
22754;SDS011;11544;42.020;23.094;2023-04-01T00:34:23;3.63;;;1.70;;
22754;SDS011;11544;42.020;23.094;2023-04-01T00:36:51;4.05;;;1.83;;
22754;SDS011;11544;42.020;23.094;2023-04-01T00:39:21;3.75;;;1.85;;
22754;SDS011;11544;42.020;23.094;2023-04-01T00:41:47;4.55;;;1.30;;
22754;SDS011;11544;42.020;23.094;2023-04-01T00:44:16;4.78;;;2.08;;
22754;SDS011;11544;42.020;23.094;2023-04-01T00:46:45;8.20;;;1.40;;
22754;SDS011;11544;42.020;23.094;2023-04-01T00:49:14;3.58;;;1.83;;
22754;SDS011;11544;42.020;23.094;2023-04-01T00:51:43;6.40;;;1.70;;
22754;SDS011;11544;42.020;23.094;2023-04-01T00:54:14;3.20;;;1.52;;
22754;SDS011;11544;42.020;23.094;2023-04-01T00:56:45;4.75;;;1.50;;
22754;SDS011;11544;42.020;23.094;2023-04-01T00:59:18;5.60;;;1.60;;
22754;SDS011;11544;42.020;23.094;2023-04-01T01:01:50;2.33;;;1.67;;
22754;SDS011;11544;42.020;23.094;2023-04-01T01:04:28;4.28;;;1.60;;
22754;SDS011;11544;42.020;23.094;2023-04-01T01:12:34;1.88;;;1.33;;
22754;SDS011;11544;42.020;23.094;2023-04-01T01:15:22;7.65;;;1.83;;
22754;SDS011;11544;42.020;23.094;2023-04-01T01:18:05;3.33;;;1.17;;
22754;SDS011;11544;42.020;23.094;2023-04-01T01:21:25;4.68;;;1.52;;
22754;SDS011;11544;42.020;23.094;2023-04-01T01:33:13;10.57;;;3.80;;
22754;SDS011;11544;42.020;23.094;2023-04-01T01:35:59;8.25;;;3.00;;
22754;SDS011;11544;42.020;23.094;2023-04-01T01:38:31;5.18;;;2.42;;
22754;SDS011;11544;42.020;23.094;2023-04-01T01:41:01;6.03;;;2.50;;
22754;SDS011;11544;42.020;23.094;2023-04-01T01:43:32;9.40;;;2.80;;
22754;SDS011;11544;42.020;23.094;2023-04-01T01:46:14;4.90;;;2.40;;
22754;SDS011;11544;42.020;23.094;2023-04-01T01:48:45;5.65;;;2.85;;
22754;SDS011;11544;42.020;23.094;2023-04-01T01:51:15;4.93;;;2.53;;
22754;SDS011;11544;42.020;23.094;2023-04-01T01:53:43;4.25;;;2.22;;
22754;SDS011;11544;42.020;23.094;2023-04-01T01:56:10;4.88;;;2.45;;
22754;SDS011;11544;42.020;23.094;2023-04-01T01:58:43;4.63;;;1.90;;
22754;SDS011;11544;42.020;23.094;2023-04-01T02:01:23;4.80;;;2.25;;
22754;SDS011;11544;42.020;23.094;2023-04-01T02:03:52;4.70;;;1.80;;
22754;SDS011;11544;42.020;23.094;2023-04-01T02:06:22;3.33;;;1.70;;
22754;SDS011;11544;42.020;23.094;2023-04-01T02:08:54;5.88;;;2.05;;
22754;SDS011;11544;42.020;23.094;2023-04-01T02:11:28;6.53;;;2.28;;
22754;SDS011;11544;42.020;23.094;2023-04-01T02:14:01;6.05;;;1.95;;
22754;SDS011;11544;42.020;23.094;2023-04-01T02:16:37;5.70;;;2.15;;
22754;SDS011;11544;42.020;23.094;2023-04-01T02:19:11;5.40;;;1.83;;
22754;SDS011;11544;42.020;23.094;2023-04-01T02:21:41;7.22;;;2.28;;
22754;SDS011;11544;42.020;23.094;2023-04-01T02:24:10;3.45;;;1.30;;
22754;SDS011;11544;42.020;23.094;2023-04-01T02:26:40;5.55;;;1.73;;
22754;SDS011;11544;42.020;23.094;2023-04-01T02:29:08;3.25;;;1.60;;
22754;SDS011;11544;42.020;23.094;2023-04-01T02:31:37;4.75;;;1.52;;
22754;SDS011;11544;42.020;23.094;2023-04-01T02:34:05;3.22;;;1.25;;
22754;SDS011;11544;42.020;23.094;2023-04-01T02:36:34;3.15;;;1.52;;
22754;SDS011;11544;42.020;23.094;2023-04-01T02:39:02;4.20;;;1.58;;
22754;SDS011;11544;42.020;23.094;2023-04-01T02:41:30;4.05;;;1.30;;
22754;SDS011;11544;42.020;23.094;2023-04-01T02:43:57;3.25;;;1.48;;
22754;SDS011;11544;42.020;23.094;2023-04-01T02:46:25;2.33;;;1.33;;
22754;SDS011;11544;42.020;23.094;2023-04-01T02:48:52;5.97;;;1.73;;
22754;SDS011;11544;42.020;23.094;2023-04-01T02:51:20;4.13;;;1.50;;
22754;SDS011;11544;42.020;23.094;2023-04-01T02:53:47;4.03;;;1.88;;
22754;SDS011;11544;42.020;23.094;2023-04-01T02:56:13;6.90;;;1.90;;
22754;SDS011;11544;42.020;23.094;2023-04-01T02:58:40;6.28;;;1.83;;
22754;SDS011;11544;42.020;23.094;2023-04-01T03:01:07;3.67;;;1.92;;
22754;SDS011;11544;42.020;23.094;2023-04-01T03:03:34;3.10;;;1.25;;
22754;SDS011;11544;42.020;23.094;2023-04-01T03:06:05;2.45;;;1.20;;
22754;SDS011;11544;42.020;23.094;2023-04-01T03:08:37;3.92;;;1.10;;
22754;SDS011;11544;42.020;23.094;2023-04-01T03:11:04;6.97;;;1.90;;
22754;SDS011;11544;42.020;23.094;2023-04-01T03:13:32;6.32;;;1.70;;
22754;SDS011;11544;42.020;23.094;2023-04-01T03:15:59;8.82;;;2.38;;
22754;SDS011;11544;42.020;23.094;2023-04-01T03:18:27;6.68;;;2.25;;
22754;SDS011;11544;42.020;23.094;2023-04-01T03:20:53;5.63;;;2.28;;
22754;SDS011;11544;42.020;23.094;2023-04-01T03:23:21;6.32;;;2.20;;
22754;SDS011;11544;42.020;23.094;2023-04-01T03:25:48;8.85;;;2.30;;
22754;SDS011;11544;42.020;23.094;2023-04-01T03:28:15;8.90;;;2.75;;
22754;SDS011;11544;42.020;23.094;2023-04-01T03:30:42;8.55;;;2.28;;
22754;SDS011;11544;42.020;23.094;2023-04-01T03:33:09;7.32;;;1.80;;
22754;SDS011;11544;42.020;23.094;2023-04-01T03:35:36;5.65;;;1.83;;
22754;SDS011;11544;42.020;23.094;2023-04-01T03:38:03;4.97;;;1.77;;
22754;SDS011;11544;42.020;23.094;2023-04-01T03:40:31;3.67;;;1.52;;
22754;SDS011;11544;42.020;23.094;2023-04-01T03:42:59;5.28;;;1.85;;
22754;SDS011;11544;42.020;23.094;2023-04-01T03:45:28;3.30;;;1.50;;
22754;SDS011;11544;42.020;23.094;2023-04-01T03:47:55;7.43;;;1.98;;
22754;SDS011;11544;42.020;23.094;2023-04-01T03:50:22;3.65;;;1.63;;
22754;SDS011;11544;42.020;23.094;2023-04-01T03:52:49;2.67;;;1.50;;
22754;SDS011;11544;42.020;23.094;2023-04-01T03:55:18;10.00;;;2.03;;
22754;SDS011;11544;42.020;23.094;2023-04-01T03:57:44;5.22;;;2.08;;
22754;SDS011;11544;42.020;23.094;2023-04-01T04:00:11;7.60;;;2.30;;
22754;SDS011;11544;42.020;23.094;2023-04-01T04:02:40;9.30;;;3.20;;
22754;SDS011;11544;42.020;23.094;2023-04-01T04:05:07;6.60;;;2.67;;
22754;SDS011;11544;42.020;23.094;2023-04-01T04:07:35;5.28;;;1.85;;
22754;SDS011;11544;42.020;23.094;2023-04-01T04:10:02;3.85;;;1.85;;
22754;SDS011;11544;42.020;23.094;2023-04-01T04:12:29;6.50;;;2.22;;
22754;SDS011;11544;42.020;23.094;2023-04-01T04:14:56;3.72;;;2.22;;
22754;SDS011;11544;42.020;23.094;2023-04-01T04:17:24;4.68;;;1.80;;
22754;SDS011;11544;42.020;23.094;2023-04-01T04:19:54;3.80;;;1.70;;
22754;SDS011;11544;42.020;23.094;2023-04-01T04:22:21;7.82;;;2.10;;
22754;SDS011;11544;42.020;23.094;2023-04-01T04:24:48;4.38;;;1.77;;
22754;SDS011;11544;42.020;23.094;2023-04-01T04:27:15;3.25;;;2.13;;
22754;SDS011;11544;42.020;23.094;2023-04-01T04:29:43;4.53;;;1.98;;
22754;SDS011;11544;42.020;23.094;2023-04-01T04:32:11;5.35;;;1.90;;
22754;SDS011;11544;42.020;23.094;2023-04-01T04:34:38;4.32;;;2.08;;
22754;SDS011;11544;42.020;23.094;2023-04-01T04:37:05;6.07;;;2.20;;
22754;SDS011;11544;42.020;23.094;2023-04-01T04:39:32;5.55;;;2.22;;
22754;SDS011;11544;42.020;23.094;2023-04-01T04:41:59;6.30;;;2.55;;
22754;SDS011;11544;42.020;23.094;2023-04-01T04:44:30;9.10;;;2.53;;
22754;SDS011;11544;42.020;23.094;2023-04-01T04:46:57;9.27;;;2.80;;
22754;SDS011;11544;42.020;23.094;2023-04-01T04:49:25;9.13;;;3.00;;
22754;SDS011;11544;42.020;23.094;2023-04-01T04:52:05;9.07;;;3.10;;
22754;SDS011;11544;42.020;23.094;2023-04-01T04:54:33;8.55;;;3.50;;
22754;SDS011;11544;42.020;23.094;2023-04-01T04:57:00;8.80;;;3.70;;
22754;SDS011;11544;42.020;23.094;2023-04-01T04:59:27;8.13;;;3.30;;
22754;SDS011;11544;42.020;23.094;2023-04-01T05:01:54;11.80;;;3.47;;
22754;SDS011;11544;42.020;23.094;2023-04-01T05:04:20;8.27;;;3.72;;
22754;SDS011;11544;42.020;23.094;2023-04-01T05:06:47;7.35;;;3.17;;
22754;SDS011;11544;42.020;23.094;2023-04-01T05:09:14;6.20;;;3.20;;
22754;SDS011;11544;42.020;23.094;2023-04-01T05:11:41;7.28;;;3.08;;
22754;SDS011;11544;42.020;23.094;2023-04-01T05:14:15;6.18;;;2.70;;
22754;SDS011;11544;42.020;23.094;2023-04-01T05:16:42;7.05;;;2.45;;
22754;SDS011;11544;42.020;23.094;2023-04-01T05:19:09;6.75;;;3.08;;
22754;SDS011;11544;42.020;23.094;2023-04-01T05:21:36;10.35;;;5.10;;
22754;SDS011;11544;42.020;23.094;2023-04-01T05:24:07;12.10;;;4.90;;
22754;SDS011;11544;42.020;23.094;2023-04-01T05:26:35;9.05;;;4.70;;
22754;SDS011;11544;42.020;23.094;2023-04-01T05:29:03;12.05;;;5.57;;
22754;SDS011;11544;42.020;23.094;2023-04-01T05:31:31;12.57;;;4.50;;
22754;SDS011;11544;42.020;23.094;2023-04-01T05:33:58;10.23;;;5.13;;
22754;SDS011;11544;42.020;23.094;2023-04-01T05:36:29;13.70;;;4.15;;
22754;SDS011;11544;42.020;23.094;2023-04-01T05:38:56;10.70;;;4.78;;
22754;SDS011;11544;42.020;23.094;2023-04-01T05:41:23;10.93;;;3.30;;
22754;SDS011;11544;42.020;23.094;2023-04-01T05:43:50;8.07;;;3.38;;
22754;SDS011;11544;42.020;23.094;2023-04-01T05:46:17;7.43;;;4.15;;
22754;SDS011;11544;42.020;23.094;2023-04-01T05:48:44;5.25;;;3.33;;
22754;SDS011;11544;42.020;23.094;2023-04-01T05:51:15;8.52;;;3.38;;
22754;SDS011;11544;42.020;23.094;2023-04-01T05:53:42;9.73;;;3.80;;
22754;SDS011;11544;42.020;23.094;2023-04-01T05:56:09;7.55;;;3.83;;
22754;SDS011;11544;42.020;23.094;2023-04-01T05:58:37;8.38;;;3.95;;
22754;SDS011;11544;42.020;23.094;2023-04-01T06:01:07;11.45;;;4.20;;
22754;SDS011;11544;42.020;23.094;2023-04-01T06:03:41;9.85;;;4.47;;
22754;SDS011;11544;42.020;23.094;2023-04-01T06:06:16;8.45;;;3.05;;
22754;SDS011;11544;42.020;23.094;2023-04-01T06:08:49;7.50;;;2.30;;
22754;SDS011;11544;42.020;23.094;2023-04-01T06:11:24;10.27;;;2.90;;
22754;SDS011;11544;42.020;23.094;2023-04-01T06:14:07;5.78;;;2.13;;
22754;SDS011;11544;42.020;23.094;2023-04-01T06:37:56;9.77;;;2.75;;
22754;SDS011;11544;42.020;23.094;2023-04-01T06:40:40;6.72;;;2.80;;
22754;SDS011;11544;42.020;23.094;2023-04-01T06:46:17;8.82;;;2.42;;
22754;SDS011;11544;42.020;23.094;2023-04-01T06:52:06;12.00;;;2.80;;
22754;SDS011;11544;42.020;23.094;2023-04-01T06:54:38;8.35;;;3.83;;
22754;SDS011;11544;42.020;23.094;2023-04-01T07:00:13;4.57;;;2.67;;
22754;SDS011;11544;42.020;23.094;2023-04-01T07:02:50;6.47;;;3.22;;
22754;SDS011;11544;42.020;23.094;2023-04-01T07:05:36;7.53;;;2.63;;
22754;SDS011;11544;42.020;23.094;2023-04-01T07:08:04;6.93;;;2.50;;
22754;SDS011;11544;42.020;23.094;2023-04-01T07:13:34;6.95;;;2.70;;
22754;SDS011;11544;42.020;23.094;2023-04-01T07:21:48;8.52;;;3.17;;
22754;SDS011;11544;42.020;23.094;2023-04-01T07:24:25;8.18;;;2.10;;
22754;SDS011;11544;42.020;23.094;2023-04-01T07:26:56;6.40;;;2.15;;
22754;SDS011;11544;42.020;23.094;2023-04-01T07:29:24;8.00;;;3.78;;
22754;SDS011;11544;42.020;23.094;2023-04-01T07:34:46;11.63;;;2.50;;
22754;SDS011;11544;42.020;23.094;2023-04-01T07:37:21;5.10;;;2.10;;
22754;SDS011;11544;42.020;23.094;2023-04-01T07:45:38;5.88;;;2.42;;
22754;SDS011;11544;42.020;23.094;2023-04-01T07:54:04;5.18;;;1.85;;
22754;SDS011;11544;42.020;23.094;2023-04-01T07:56:42;3.65;;;2.20;;
22754;SDS011;11544;42.020;23.094;2023-04-01T07:59:27;5.13;;;2.28;;
22754;SDS011;11544;42.020;23.094;2023-04-01T08:10:29;6.50;;;2.70;;
22754;SDS011;11544;42.020;23.094;2023-04-01T08:13:15;8.65;;;2.53;;
22754;SDS011;11544;42.020;23.094;2023-04-01T08:15:54;4.90;;;2.30;;
22754;SDS011;11544;42.020;23.094;2023-04-01T08:18:33;8.25;;;3.00;;
22754;SDS011;11544;42.020;23.094;2023-04-01T08:21:23;7.25;;;2.78;;
22754;SDS011;11544;42.020;23.094;2023-04-01T08:23:56;7.90;;;2.53;;
22754;SDS011;11544;42.020;23.094;2023-04-01T08:32:00;7.95;;;2.53;;
22754;SDS011;11544;42.020;23.094;2023-04-01T08:34:37;5.88;;;2.03;;
22754;SDS011;11544;42.020;23.094;2023-04-01T08:37:11;6.68;;;2.08;;
22754;SDS011;11544;42.020;23.094;2023-04-01T08:39:45;8.02;;;2.53;;
22754;SDS011;11544;42.020;23.094;2023-04-01T08:42:24;6.25;;;2.28;;
22754;SDS011;11544;42.020;23.094;2023-04-01T08:56:34;7.88;;;2.50;;
22754;SDS011;11544;42.020;23.094;2023-04-01T09:05:31;7.07;;;2.20;;
22754;SDS011;11544;42.020;23.094;2023-04-01T09:08:18;7.97;;;2.13;;
22754;SDS011;11544;42.020;23.094;2023-04-01T09:16:30;6.40;;;2.50;;
22754;SDS011;11544;42.020;23.094;2023-04-01T09:19:20;5.35;;;2.63;;
22754;SDS011;11544;42.020;23.094;2023-04-01T09:38:03;9.60;;;4.53;;
22754;SDS011;11544;42.020;23.094;2023-04-01T09:48:46;12.20;;;3.17;;
22754;SDS011;11544;42.020;23.094;2023-04-01T09:51:39;5.82;;;2.65;;
22754;SDS011;11544;42.020;23.094;2023-04-01T09:54:24;6.75;;;2.28;;
22754;SDS011;11544;42.020;23.094;2023-04-01T10:08:00;6.57;;;2.33;;
22754;SDS011;11544;42.020;23.094;2023-04-01T10:19:39;10.30;;;3.45;;
22754;SDS011;11544;42.020;23.094;2023-04-01T10:25:37;4.32;;;2.17;;
22754;SDS011;11544;42.020;23.094;2023-04-01T10:35:03;6.00;;;2.53;;
22754;SDS011;11544;42.020;23.094;2023-04-01T10:40:48;5.00;;;2.10;;
22754;SDS011;11544;42.020;23.094;2023-04-01T10:49:32;6.95;;;2.63;;
22754;SDS011;11544;42.020;23.094;2023-04-01T10:54:40;14.05;;;3.78;;
22754;SDS011;11544;42.020;23.094;2023-04-01T11:08:22;6.50;;;2.50;;
22754;SDS011;11544;42.020;23.094;2023-04-01T11:30:53;4.68;;;2.15;;
22754;SDS011;11544;42.020;23.094;2023-04-01T11:33:31;13.25;;;2.25;;
22754;SDS011;11544;42.020;23.094;2023-04-01T11:41:35;7.32;;;1.63;;
22754;SDS011;11544;42.020;23.094;2023-04-01T11:44:20;5.28;;;1.98;;
22754;SDS011;11544;42.020;23.094;2023-04-01T11:47:07;7.80;;;1.90;;
22754;SDS011;11544;42.020;23.094;2023-04-01T11:55:33;8.55;;;2.45;;
22754;SDS011;11544;42.020;23.094;2023-04-01T12:01:04;7.88;;;2.22;;
22754;SDS011;11544;42.020;23.094;2023-04-01T12:15:27;8.85;;;2.13;;
22754;SDS011;11544;42.020;23.094;2023-04-01T12:18:14;7.93;;;2.28;;
22754;SDS011;11544;42.020;23.094;2023-04-01T12:20:49;6.68;;;2.67;;
22754;SDS011;11544;42.020;23.094;2023-04-01T12:24:09;6.80;;;2.17;;
22754;SDS011;11544;42.020;23.094;2023-04-01T12:32:19;6.95;;;2.80;;
22754;SDS011;11544;42.020;23.094;2023-04-01T12:34:53;8.15;;;3.00;;
22754;SDS011;11544;42.020;23.094;2023-04-01T12:46:26;5.68;;;2.42;;
22754;SDS011;11544;42.020;23.094;2023-04-01T12:52:13;9.75;;;3.40;;
22754;SDS011;11544;42.020;23.094;2023-04-01T13:17:58;5.53;;;3.15;;
22754;SDS011;11544;42.020;23.094;2023-04-01T13:20:37;6.18;;;2.80;;
22754;SDS011;11544;42.020;23.094;2023-04-01T13:26:27;7.78;;;4.00;;
22754;SDS011;11544;42.020;23.094;2023-04-01T13:40:12;3.75;;;2.40;;
22754;SDS011;11544;42.020;23.094;2023-04-01T13:45:46;9.68;;;3.72;;
22754;SDS011;11544;42.020;23.094;2023-04-01T13:48:27;7.38;;;2.80;;
22754;SDS011;11544;42.020;23.094;2023-04-01T13:51:34;7.63;;;2.95;;
22754;SDS011;11544;42.020;23.094;2023-04-01T14:00:19;4.15;;;2.53;;
22754;SDS011;11544;42.020;23.094;2023-04-01T14:06:00;10.95;;;5.80;;
22754;SDS011;11544;42.020;23.094;2023-04-01T14:25:20;4.35;;;2.28;;
22754;SDS011;11544;42.020;23.094;2023-04-01T14:41:47;12.07;;;5.32;;
22754;SDS011;11544;42.020;23.094;2023-04-01T14:45:08;9.25;;;4.63;;
22754;SDS011;11544;42.020;23.094;2023-04-01T14:47:51;16.65;;;5.80;;
22754;SDS011;11544;42.020;23.094;2023-04-01T14:50:27;37.38;;;11.82;;
22754;SDS011;11544;42.020;23.094;2023-04-01T14:58:12;6.38;;;4.15;;
22754;SDS011;11544;42.020;23.094;2023-04-01T15:03:30;7.32;;;4.03;;
22754;SDS011;11544;42.020;23.094;2023-04-01T15:18:01;5.80;;;2.97;;
22754;SDS011;11544;42.020;23.094;2023-04-01T15:20:50;7.65;;;3.50;;
22754;SDS011;11544;42.020;23.094;2023-04-01T15:29:23;6.28;;;2.65;;
22754;SDS011;11544;42.020;23.094;2023-04-01T15:32:01;4.63;;;2.30;;
22754;SDS011;11544;42.020;23.094;2023-04-01T15:34:41;3.42;;;2.08;;
22754;SDS011;11544;42.020;23.094;2023-04-01T15:48:06;6.63;;;2.10;;
22754;SDS011;11544;42.020;23.094;2023-04-01T15:51:02;3.75;;;2.17;;
22754;SDS011;11544;42.020;23.094;2023-04-01T16:10:59;7.18;;;3.42;;
22754;SDS011;11544;42.020;23.094;2023-04-01T16:28:13;8.20;;;4.65;;
22754;SDS011;11544;42.020;23.094;2023-04-01T16:33:23;5.75;;;3.97;;
22754;SDS011;11544;42.020;23.094;2023-04-01T16:38:51;6.72;;;3.10;;
22754;SDS011;11544;42.020;23.094;2023-04-01T16:41:33;5.15;;;3.35;;
22754;SDS011;11544;42.020;23.094;2023-04-01T16:44:13;3.92;;;2.60;;
22754;SDS011;11544;42.020;23.094;2023-04-01T16:46:49;3.60;;;2.28;;
22754;SDS011;11544;42.020;23.094;2023-04-01T16:49:24;3.63;;;2.25;;
22754;SDS011;11544;42.020;23.094;2023-04-01T16:52:14;4.85;;;3.00;;
22754;SDS011;11544;42.020;23.094;2023-04-01T16:55:32;7.72;;;3.97;;
22754;SDS011;11544;42.020;23.094;2023-04-01T16:57:46;5.47;;;3.55;;
22754;SDS011;11544;42.020;23.094;2023-04-01T17:00:37;12.10;;;4.32;;
22754;SDS011;11544;42.020;23.094;2023-04-01T17:04:10;8.35;;;4.20;;
22754;SDS011;11544;42.020;23.094;2023-04-01T17:20:10;7.85;;;5.68;;
22754;SDS011;11544;42.020;23.094;2023-04-01T17:26:20;12.57;;;7.70;;
22754;SDS011;11544;42.020;23.094;2023-04-01T17:29:23;11.23;;;7.50;;
22754;SDS011;11544;42.020;23.094;2023-04-01T17:40:34;3.83;;;2.45;;
22754;SDS011;11544;42.020;23.094;2023-04-01T17:44:06;6.15;;;2.15;;
22754;SDS011;11544;42.020;23.094;2023-04-01T17:49:00;1.65;;;0.98;;
22754;SDS011;11544;42.020;23.094;2023-04-01T17:51:37;1.05;;;0.80;;
22754;SDS011;11544;42.020;23.094;2023-04-01T18:00:16;2.80;;;0.60;;
22754;SDS011;11544;42.020;23.094;2023-04-01T18:14:41;1.05;;;0.70;;
22754;SDS011;11544;42.020;23.094;2023-04-01T18:20:17;1.33;;;0.70;;
22754;SDS011;11544;42.020;23.094;2023-04-01T18:22:47;0.55;;;0.50;;
22754;SDS011;11544;42.020;23.094;2023-04-01T18:25:29;1.45;;;1.10;;
22754;SDS011;11544;42.020;23.094;2023-04-01T18:30:55;3.13;;;1.50;;
22754;SDS011;11544;42.020;23.094;2023-04-01T18:33:40;4.32;;;1.73;;
22754;SDS011;11544;42.020;23.094;2023-04-01T18:36:37;1.08;;;0.73;;
22754;SDS011;11544;42.020;23.094;2023-04-01T18:42:31;1.40;;;0.85;;
22754;SDS011;11544;42.020;23.094;2023-04-01T18:45:17;1.23;;;0.80;;
22754;SDS011;11544;42.020;23.094;2023-04-01T18:54:05;1.02;;;0.82;;
22754;SDS011;11544;42.020;23.094;2023-04-01T18:56:48;1.45;;;1.10;;
22754;SDS011;11544;42.020;23.094;2023-04-01T18:59:18;2.15;;;1.27;;
22754;SDS011;11544;42.020;23.094;2023-04-01T19:05:07;3.70;;;1.55;;
22754;SDS011;11544;42.020;23.094;2023-04-01T19:07:46;3.88;;;2.45;;
22754;SDS011;11544;42.020;23.094;2023-04-01T19:15:59;7.00;;;3.20;;
22754;SDS011;11544;42.020;23.094;2023-04-01T19:21:37;4.32;;;2.20;;
22754;SDS011;11544;42.020;23.094;2023-04-01T19:26:58;4.65;;;2.78;;
22754;SDS011;11544;42.020;23.094;2023-04-01T19:37:34;4.20;;;2.45;;
22754;SDS011;11544;42.020;23.094;2023-04-01T19:42:52;4.95;;;2.65;;
22754;SDS011;11544;42.020;23.094;2023-04-01T19:52:31;6.80;;;4.70;;
22754;SDS011;11544;42.020;23.094;2023-04-01T19:55:06;6.65;;;3.92;;
22754;SDS011;11544;42.020;23.094;2023-04-01T19:58:00;8.32;;;3.40;;
22754;SDS011;11544;42.020;23.094;2023-04-01T20:00:37;4.47;;;2.53;;
22754;SDS011;11544;42.020;23.094;2023-04-01T20:11:30;2.08;;;1.30;;
22754;SDS011;11544;42.020;23.094;2023-04-01T20:25:26;3.38;;;2.05;;
22754;SDS011;11544;42.020;23.094;2023-04-01T20:28:09;4.15;;;1.63;;
22754;SDS011;11544;42.020;23.094;2023-04-01T20:51:16;2.05;;;1.48;;
22754;SDS011;11544;42.020;23.094;2023-04-01T20:58:24;2.03;;;1.50;;
22754;SDS011;11544;42.020;23.094;2023-04-01T21:03:15;3.67;;;2.00;;
22754;SDS011;11544;42.020;23.094;2023-04-01T21:14:24;6.50;;;3.17;;
22754;SDS011;11544;42.020;23.094;2023-04-01T21:16:49;5.07;;;2.92;;
22754;SDS011;11544;42.020;23.094;2023-04-01T21:20:00;2.92;;;1.67;;
22754;SDS011;11544;42.020;23.094;2023-04-01T21:23:14;1.63;;;1.40;;
22754;SDS011;11544;42.020;23.094;2023-04-01T21:38:11;4.13;;;1.80;;
22754;SDS011;11544;42.020;23.094;2023-04-01T21:43:42;2.45;;;1.67;;
22754;SDS011;11544;42.020;23.094;2023-04-01T22:08:46;3.50;;;2.00;;
22754;SDS011;11544;42.020;23.094;2023-04-01T22:14:39;7.07;;;2.45;;
22754;SDS011;11544;42.020;23.094;2023-04-01T22:17:16;3.55;;;2.92;;
22754;SDS011;11544;42.020;23.094;2023-04-01T22:26:00;4.10;;;2.30;;
22754;SDS011;11544;42.020;23.094;2023-04-01T22:31:27;3.20;;;2.03;;
22754;SDS011;11544;42.020;23.094;2023-04-01T22:34:09;3.58;;;2.42;;
22754;SDS011;11544;42.020;23.094;2023-04-01T22:36:54;3.75;;;2.55;;
22754;SDS011;11544;42.020;23.094;2023-04-01T22:47:40;4.25;;;1.52;;
22754;SDS011;11544;42.020;23.094;2023-04-01T22:50:54;2.55;;;1.80;;
22754;SDS011;11544;42.020;23.094;2023-04-01T22:56:59;2.05;;;1.23;;
22754;SDS011;11544;42.020;23.094;2023-04-01T23:00:28;2.50;;;1.42;;
22754;SDS011;11544;42.020;23.094;2023-04-01T23:02:42;4.20;;;1.40;;
22754;SDS011;11544;42.020;23.094;2023-04-01T23:05:30;1.83;;;1.40;;
22754;SDS011;11544;42.020;23.094;2023-04-01T23:08:07;1.98;;;1.30;;
22754;SDS011;11544;42.020;23.094;2023-04-01T23:10:59;2.85;;;1.60;;
22754;SDS011;11544;42.020;23.094;2023-04-01T23:13:46;1.40;;;1.30;;
22754;SDS011;11544;42.020;23.094;2023-04-01T23:16:32;2.80;;;1.30;;
22754;SDS011;11544;42.020;23.094;2023-04-01T23:19:19;1.30;;;1.20;;
22754;SDS011;11544;42.020;23.094;2023-04-01T23:21:54;1.85;;;1.13;;
22754;SDS011;11544;42.020;23.094;2023-04-01T23:24:33;1.52;;;1.15;;
22754;SDS011;11544;42.020;23.094;2023-04-01T23:27:11;1.02;;;0.88;;
22754;SDS011;11544;42.020;23.094;2023-04-01T23:29:46;3.55;;;1.50;;
22754;SDS011;11544;42.020;23.094;2023-04-01T23:32:14;2.15;;;1.35;;
22754;SDS011;11544;42.020;23.094;2023-04-01T23:34:50;0.77;;;0.70;;
22754;SDS011;11544;42.020;23.094;2023-04-01T23:37:21;0.90;;;0.90;;
22754;SDS011;11544;42.020;23.094;2023-04-01T23:40:08;4.80;;;1.20;;
22754;SDS011;11544;42.020;23.094;2023-04-01T23:42:43;1.70;;;1.15;;
22754;SDS011;11544;42.020;23.094;2023-04-01T23:45:15;1.20;;;1.10;;
22754;SDS011;11544;42.020;23.094;2023-04-01T23:47:47;0.80;;;0.80;;
22754;SDS011;11544;42.020;23.094;2023-04-01T23:50:22;1.75;;;1.00;;
22754;SDS011;11544;42.020;23.094;2023-04-01T23:52:53;1.20;;;0.93;;
22754;SDS011;11544;42.020;23.094;2023-04-01T23:55:26;1.05;;;0.95;;
22754;SDS011;11544;42.020;23.094;2023-04-01T23:58:02;3.20;;;0.95;;
